createdAt,value
2022-12-03T00:00:19.575Z,101724.28
2022-12-03T00:03:28.505Z,101717.13
2022-12-03T00:06:37.368Z,101719.38
2022-12-03T00:09:46.368Z,101718.81
2022-12-03T00:12:55.369Z,101717.69
2022-12-03T00:16:04.462Z,101712.00
2022-12-03T00:19:13.367Z,101701.91
2022-12-03T00:22:22.367Z,101704.16
2022-12-03T00:25:42.990Z,101712.09
2022-12-03T00:28:56.303Z,101727.06
2022-12-03T00:32:10.160Z,101727.28
2022-12-03T00:35:19.368Z,101726.00
2022-12-03T00:38:28.370Z,101738.84
2022-12-03T00:41:37.365Z,101732.59
2022-12-03T00:44:46.364Z,101744.41
2022-12-03T00:47:55.366Z,101747.56
2022-12-03T00:51:04.372Z,101742.91
2022-12-03T00:54:13.363Z,101756.47
2022-12-03T00:57:22.364Z,101757.63
2022-12-03T01:00:31.362Z,101753.84
2022-12-03T01:03:40.363Z,101747.88
2022-12-03T01:06:49.366Z,101751.63
2022-12-03T01:09:58.363Z,101758.19
2022-12-03T01:13:07.366Z,101758.22
2022-12-03T01:16:16.429Z,101765.88
2022-12-03T01:19:25.365Z,101764.88
2022-12-03T01:22:34.364Z,101774.06
2022-12-03T01:25:43.365Z,101765.16
2022-12-03T01:28:52.364Z,101764.75
2022-12-03T01:32:22.364Z,101763.44
2022-12-03T01:35:31.364Z,101765.22
2022-12-03T01:38:40.365Z,101764.81
2022-12-03T01:41:49.376Z,101762.53
2022-12-03T01:44:58.784Z,101764.94
2022-12-03T01:48:07.369Z,101771.03
2022-12-03T01:51:17.305Z,101764.81
2022-12-03T01:54:46.376Z,101767.69
2022-12-03T01:58:07.698Z,101761.44
2022-12-03T02:01:23.788Z,101763.28
2022-12-03T02:04:34.471Z,101761.44
2022-12-03T02:07:44.462Z,101747.25
2022-12-03T02:10:53.303Z,101759.06
2022-12-03T02:14:11.797Z,101750.53
2022-12-03T02:17:25.487Z,101756.00
2022-12-03T02:20:40.682Z,101748.16
2022-12-03T02:24:10.473Z,101743.38
2022-12-03T02:27:19.368Z,101742.03
2022-12-03T02:30:34.074Z,101742.91
2022-12-03T02:33:50.203Z,101753.00
2022-12-03T02:37:04.529Z,101750.59
2022-12-03T02:40:17.200Z,101749.13
2022-12-03T02:43:26.413Z,101753.75
2022-12-03T02:46:38.438Z,101745.81
2022-12-03T02:49:48.410Z,101747.03
2022-12-03T02:53:06.260Z,101747.56
2022-12-03T02:56:22.281Z,101749.38
2022-12-03T02:59:31.364Z,101747.06
2022-12-03T03:02:49.589Z,101749.53
2022-12-03T03:06:04.144Z,101752.56
2022-12-03T03:09:17.648Z,101756.66
2022-12-03T03:12:28.365Z,101752.53
2022-12-03T03:15:44.494Z,101749.56
2022-12-03T03:18:57.200Z,101749.56
2022-12-03T03:22:11.153Z,101750.44
2022-12-03T03:25:26.301Z,101739.72
2022-12-03T03:28:43.247Z,101751.03
2022-12-03T03:31:59.888Z,101748.03
2022-12-03T03:35:13.366Z,101749.88
2022-12-03T03:38:23.301Z,101742.13
2022-12-03T03:41:40.561Z,101750.72
2022-12-03T03:44:53.341Z,101755.59
2022-12-03T03:48:08.141Z,101753.19
2022-12-03T03:51:19.366Z,101755.94
2022-12-03T03:54:29.093Z,101752.97
2022-12-03T03:57:37.780Z,101751.31
2022-12-03T04:00:47.764Z,101745.91
2022-12-03T04:04:00.434Z,101745.28
2022-12-03T04:07:06.062Z,101754.44
2022-12-03T04:10:44.640Z,101751.81
2022-12-03T04:14:01.078Z,101749.28
2022-12-03T04:17:13.365Z,101743.22
2022-12-03T04:20:22.468Z,101750.00
2022-12-03T04:23:31.363Z,101751.81
2022-12-03T04:27:01.365Z,101755.56
2022-12-03T04:30:10.367Z,101756.00
2022-12-03T04:33:38.800Z,101746.38
2022-12-03T04:36:49.365Z,101739.22
2022-12-03T04:39:59.404Z,101748.13
2022-12-03T04:43:08.301Z,101746.09
2022-12-03T04:46:17.481Z,101744.50
2022-12-03T04:49:26.406Z,101743.84
2022-12-03T04:52:39.932Z,101754.06
2022-12-03T04:55:52.660Z,101750.66
2022-12-03T04:59:07.233Z,101760.66
2022-12-03T05:02:22.436Z,101762.22
2022-12-03T05:05:39.952Z,101768.59
2022-12-03T05:08:52.627Z,101761.38
2022-12-03T05:12:06.009Z,101769.09
2022-12-03T05:15:19.365Z,101766.94
2022-12-03T05:18:28.376Z,101771.78
2022-12-03T05:21:37.363Z,101773.38
2022-12-03T05:24:47.406Z,101764.63
2022-12-03T05:27:56.300Z,101762.16
2022-12-03T05:31:06.578Z,101766.56
2022-12-03T05:34:14.712Z,101769.84
2022-12-03T05:37:22.781Z,101765.28
2022-12-03T05:40:31.683Z,101775.03
2022-12-03T05:43:41.410Z,101777.22
2022-12-03T05:46:50.309Z,101779.09
2022-12-03T06:38:42.740Z,101794.56
2022-12-03T06:42:10.781Z,101798.69
2022-12-03T06:45:25.757Z,101793.88
2022-12-03T06:48:44.923Z,101799.72
2022-12-03T06:51:59.697Z,101799.06
2022-12-03T06:55:16.434Z,101794.78
2022-12-03T06:58:31.182Z,101793.00
2022-12-03T07:01:44.266Z,101791.28
2022-12-03T07:04:54.981Z,101785.66
2022-12-03T07:08:08.550Z,101793.84
2022-12-03T07:11:34.780Z,101803.81
2022-12-03T07:21:40.081Z,101806.63
2022-12-03T07:35:23.599Z,101813.97
2022-12-03T07:38:37.293Z,101819.88
2022-12-03T07:41:55.956Z,101819.88
2022-12-03T07:48:46.754Z,101810.94
2022-12-03T07:52:08.417Z,101812.88
2022-12-03T07:55:17.450Z,101814.75
2022-12-03T08:05:46.493Z,101811.41
2022-12-03T08:08:55.538Z,101813.56
2022-12-03T08:12:10.482Z,101810.06
2022-12-03T08:15:39.331Z,101820.63
2022-12-03T08:19:02.961Z,101818.69
2022-12-03T08:22:52.627Z,101828.38
2022-12-03T08:29:55.784Z,101821.09
2022-12-03T08:33:41.715Z,101817.13
2022-12-03T08:37:12.947Z,101812.34
2022-12-03T08:40:43.696Z,101821.00
2022-12-03T08:43:56.809Z,101826.56
2022-12-03T08:47:27.322Z,101822.84
2022-12-03T08:50:55.527Z,101835.66
2022-12-03T08:54:23.885Z,101836.47
2022-12-03T09:01:45.905Z,101825.41
2022-12-03T09:04:56.486Z,101811.91
2022-12-03T09:11:38.710Z,101820.44
2022-12-03T09:14:54.551Z,101818.63
2022-12-03T09:18:26.449Z,101824.03
2022-12-03T09:32:58.733Z,101822.88
2022-12-03T09:36:30.204Z,101821.88
2022-12-03T09:39:39.963Z,101821.31
2022-12-03T09:44:03.171Z,101810.06
2022-12-03T09:47:15.332Z,101804.47
2022-12-03T09:50:36.370Z,101798.59
2022-12-03T09:53:52.113Z,101802.50
2022-12-03T10:04:28.019Z,101784.19
2022-12-03T10:07:38.515Z,101786.63
2022-12-03T10:14:14.283Z,101772.50
2022-12-03T10:24:49.772Z,101757.69
2022-12-03T10:32:04.672Z,101757.47
2022-12-03T10:36:06.343Z,101750.47
2022-12-03T10:39:27.563Z,101759.69
2022-12-03T10:42:35.881Z,101754.97
2022-12-03T10:45:46.038Z,101746.84
2022-12-03T10:49:13.501Z,101741.75
2022-12-03T10:52:26.152Z,101738.66
2022-12-03T10:55:40.302Z,101735.25
2022-12-03T10:58:57.135Z,101729.69
2022-12-03T11:02:13.059Z,101719.66
2022-12-03T11:05:35.125Z,101722.47
2022-12-03T11:08:54.716Z,101715.28
2022-12-03T11:12:14.063Z,101714.31
2022-12-03T11:15:49.581Z,101698.34
2022-12-03T11:22:48.655Z,101700.56
2022-12-03T11:30:04.980Z,101703.50
2022-12-03T11:37:22.991Z,101698.09
2022-12-03T11:40:39.795Z,101688.09
2022-12-03T11:51:34.012Z,101684.66
2022-12-03T11:54:42.357Z,101686.28
2022-12-03T12:35:57.139Z,101654.97
2022-12-03T12:39:07.029Z,101648.22
2022-12-03T12:42:37.779Z,101643.66
2022-12-03T12:45:47.415Z,101642.75
2022-12-03T12:49:11.350Z,101639.84
2022-12-03T12:55:44.826Z,101622.91
2022-12-03T12:58:59.889Z,101619.13
2022-12-03T13:02:40.326Z,101621.50
2022-12-03T13:05:56.778Z,101614.56
2022-12-03T13:09:34.176Z,101622.44
2022-12-03T13:12:43.618Z,101605.66
2022-12-03T13:16:13.475Z,101601.69
2022-12-03T13:19:46.707Z,101604.53
2022-12-03T13:22:59.471Z,101607.06
2022-12-03T13:26:40.536Z,101600.25
2022-12-03T13:30:14.413Z,101602.63
2022-12-03T13:33:32.848Z,101605.19
2022-12-03T13:40:24.079Z,101603.00
2022-12-03T13:43:44.499Z,101602.22
2022-12-03T13:46:55.033Z,101598.84
2022-12-03T13:50:08.571Z,101600.59
2022-12-03T13:53:24.942Z,101607.84
2022-12-03T13:56:36.067Z,101607.09
2022-12-03T13:59:46.599Z,101604.25
2022-12-03T14:03:00.606Z,101609.06
2022-12-03T14:06:14.592Z,101608.06
2022-12-03T14:09:25.471Z,101607.28
2022-12-03T14:12:35.112Z,101606.53
2022-12-03T14:15:43.579Z,101611.53
2022-12-03T14:18:52.683Z,101620.78
2022-12-03T14:22:01.591Z,101617.34
2022-12-03T14:25:10.578Z,101617.09
2022-12-03T14:28:19.382Z,101621.00
2022-12-03T14:31:28.528Z,101626.78
2022-12-03T14:34:37.367Z,101631.78
2022-12-03T14:37:46.395Z,101630.94
2022-12-03T14:40:55.373Z,101639.09
2022-12-03T14:44:05.005Z,101632.19
2022-12-03T14:47:14.718Z,101638.97
2022-12-03T14:50:23.433Z,101645.53
2022-12-03T14:53:32.425Z,101641.84
2022-12-03T14:56:41.422Z,101639.47
2022-12-03T15:00:00.165Z,101641.78
2022-12-03T15:03:18.236Z,101644.66
2022-12-03T15:06:28.367Z,101650.94
2022-12-03T15:09:37.376Z,101647.78
2022-12-03T15:12:46.385Z,101657.19
2022-12-03T15:15:55.376Z,101660.84
2022-12-03T15:19:04.376Z,101665.47
2022-12-03T15:22:13.688Z,101666.66
2022-12-03T15:25:27.400Z,101676.28
2022-12-03T15:28:46.690Z,101677.50
2022-12-03T15:32:01.392Z,101669.75
2022-12-03T15:35:10.379Z,101671.00
2022-12-03T15:38:19.390Z,101677.50
2022-12-03T15:41:48.389Z,101680.81
2022-12-03T15:44:58.370Z,101684.59
2022-12-03T15:48:08.120Z,101667.72
2022-12-03T15:51:16.678Z,101680.69
2022-12-03T15:54:25.377Z,101680.88
2022-12-03T15:57:34.367Z,101676.59
2022-12-03T16:00:44.422Z,101671.72
2022-12-03T16:03:53.306Z,101675.13
2022-12-03T16:07:02.309Z,101676.72
2022-12-03T16:10:12.154Z,101677.59
2022-12-03T16:13:20.305Z,101682.56
2022-12-03T16:16:29.457Z,101686.38
2022-12-03T16:19:38.304Z,101685.16
2022-12-03T16:22:47.412Z,101680.31
2022-12-03T16:25:57.207Z,101680.06
2022-12-03T16:29:05.422Z,101670.31
2022-12-03T16:32:14.566Z,101674.63
2022-12-03T16:35:23.302Z,101683.03
2022-12-03T16:38:38.605Z,101683.13
2022-12-03T16:41:55.594Z,101690.25
2022-12-03T16:45:11.416Z,101681.34
2022-12-03T16:48:20.411Z,101675.22
2022-12-03T16:51:43.225Z,101682.66
2022-12-03T16:54:58.281Z,101679.00
2022-12-03T16:58:07.371Z,101682.13
2022-12-03T17:01:17.162Z,101670.06
2022-12-03T17:04:26.307Z,101669.91
2022-12-03T17:07:42.729Z,101676.88
2022-12-03T17:11:00.843Z,101673.09
2022-12-03T17:14:13.374Z,101665.97
2022-12-03T17:17:28.075Z,101667.72
2022-12-03T17:20:51.343Z,101656.13
2022-12-03T17:27:44.873Z,101669.38
2022-12-03T17:31:01.468Z,101670.19
2022-12-03T17:34:10.371Z,101664.78
2022-12-03T17:37:18.837Z,101664.78
2022-12-03T17:40:28.380Z,101670.31
2022-12-03T17:43:37.373Z,101659.28
2022-12-03T17:46:46.476Z,101664.91
2022-12-03T17:49:56.702Z,101667.06
2022-12-03T17:53:13.105Z,101667.91
2022-12-03T17:56:27.834Z,101652.91
2022-12-03T17:59:40.431Z,101648.22
2022-12-03T18:02:52.264Z,101663.16
2022-12-03T18:06:01.370Z,101654.28
2022-12-03T18:09:10.368Z,101654.09
2022-12-03T18:12:17.960Z,101654.88
2022-12-03T18:15:28.369Z,101655.03
2022-12-03T18:18:36.025Z,101650.50
2022-12-03T18:21:46.368Z,101652.81
2022-12-03T18:24:55.372Z,101663.34
2022-12-03T18:28:04.376Z,101657.88
2022-12-03T18:31:28.129Z,101655.50
2022-12-03T18:34:43.367Z,101652.59
2022-12-03T18:37:53.099Z,101659.94
2022-12-03T18:41:01.368Z,101652.59
2022-12-03T18:44:11.718Z,101657.25
2022-12-03T18:47:28.233Z,101654.28
2022-12-03T18:50:42.131Z,101652.19
2022-12-03T18:53:57.134Z,101660.59
2022-12-03T18:57:07.366Z,101652.19
2022-12-03T19:00:16.367Z,101650.84
2022-12-03T19:03:25.408Z,101649.50
2022-12-03T19:06:35.408Z,101655.78
2022-12-03T19:09:47.951Z,101653.41
2022-12-03T19:13:04.238Z,101653.09
2022-12-03T19:16:18.162Z,101657.06
2022-12-03T19:19:31.368Z,101655.94
2022-12-03T19:22:40.367Z,101656.19
2022-12-03T19:26:05.647Z,101649.34
2022-12-03T19:29:19.370Z,101659.06
2022-12-03T19:32:28.367Z,101670.81
2022-12-03T19:35:41.393Z,101660.47
2022-12-03T19:38:56.680Z,101667.88
2022-12-03T19:42:10.578Z,101677.47
2022-12-03T19:45:24.075Z,101670.09
2022-12-03T19:48:34.368Z,101672.94
2022-12-03T19:51:43.366Z,101678.69
2022-12-03T19:55:01.070Z,101669.88
2022-12-03T19:58:17.392Z,101674.00
2022-12-03T20:01:31.421Z,101664.88
2022-12-03T20:04:40.366Z,101673.44
2022-12-03T20:07:49.400Z,101671.13
2022-12-03T20:10:58.368Z,101675.81
2022-12-03T20:14:18.834Z,101668.22
2022-12-03T20:17:33.620Z,101663.59
2022-12-03T20:20:46.368Z,101680.09
2022-12-03T20:23:55.366Z,101680.50
2022-12-03T20:27:04.372Z,101674.69
2022-12-03T20:30:13.368Z,101672.56
2022-12-03T20:33:22.367Z,101671.50
2022-12-03T20:36:31.369Z,101675.97
2022-12-03T20:39:40.369Z,101674.94
2022-12-03T20:42:50.198Z,101670.75
2022-12-03T20:46:02.703Z,101662.91
2022-12-03T20:49:19.568Z,101675.41
2022-12-03T20:52:34.224Z,101672.78
2022-12-03T20:55:46.368Z,101672.00
2022-12-03T20:58:55.682Z,101678.81
2022-12-03T21:02:04.429Z,101677.94
2022-12-03T21:05:13.367Z,101669.06
2022-12-03T21:08:40.226Z,101673.28
2022-12-03T21:11:52.367Z,101663.19
2022-12-03T21:15:01.472Z,101663.19
2022-12-03T21:18:20.183Z,101657.16
2022-12-03T21:21:35.501Z,101663.09
2022-12-03T21:24:49.369Z,101654.44
2022-12-03T21:27:58.369Z,101658.22
2022-12-03T21:31:08.151Z,101662.09
2022-12-03T21:34:17.302Z,101658.56
2022-12-03T21:37:27.022Z,101651.84
2022-12-03T21:40:35.414Z,101662.75
2022-12-03T21:43:44.410Z,101663.00
2022-12-03T21:47:09.146Z,101674.13
2022-12-03T21:50:22.367Z,101668.09
2022-12-03T21:53:31.369Z,101675.47
2022-12-03T21:56:40.367Z,101676.31
2022-12-03T21:59:48.851Z,101689.41
2022-12-03T22:02:58.455Z,101686.00
2022-12-03T22:06:07.368Z,101683.13
2022-12-03T22:09:20.552Z,101686.78
2022-12-03T22:12:41.922Z,101688.84
2022-12-03T22:15:55.318Z,101693.44
2022-12-03T22:19:04.368Z,101691.03
2022-12-03T22:22:13.373Z,101695.59
2022-12-03T22:25:22.370Z,101698.31
2022-12-03T22:28:31.369Z,101694.19
2022-12-03T22:31:40.368Z,101699.56
2022-12-03T22:34:50.407Z,101705.16
2022-12-03T22:37:59.304Z,101696.28
2022-12-03T22:41:12.112Z,101693.78
2022-12-03T22:44:25.327Z,101698.25
2022-12-03T22:47:41.070Z,101689.16
2022-12-03T22:50:55.364Z,101689.81
2022-12-03T22:54:15.004Z,101688.34
2022-12-03T22:57:29.135Z,101688.81
2022-12-03T23:00:43.366Z,101681.63
2022-12-03T23:03:52.418Z,101687.50
2022-12-03T23:07:01.366Z,101671.53
2022-12-03T23:10:10.366Z,101668.81
2022-12-03T23:13:20.718Z,101668.25
2022-12-03T23:16:37.029Z,101663.28
2022-12-03T23:19:53.916Z,101653.72
2022-12-03T23:23:07.259Z,101662.84
2022-12-03T23:26:17.100Z,101660.91
2022-12-03T23:29:26.095Z,101652.19
2022-12-03T23:32:35.406Z,101663.19
2022-12-03T23:35:44.405Z,101672.97
2022-12-03T23:38:53.412Z,101666.13
2022-12-03T23:42:02.708Z,101663.78
2022-12-03T23:45:11.407Z,101661.28
2022-12-03T23:48:20.409Z,101656.97
2022-12-03T23:51:29.718Z,101651.88
2022-12-03T23:54:38.717Z,101656.53
2022-12-03T23:57:47.408Z,101666.28
